Time;durP1;ratioP1;P1;durP2;ratioP2;P2;SDS_P1;SDS_P2;PMS_P1;PMS_P2;Temp;Humidity;BMP_temperature;BMP_pressure;BME280_temperature;BME280_humidity;BME280_pressure;Samples;Min_cycle;Max_cycle;Signal;HPM_P1;HPM_P2
2022/05/17 00:00:54;;;;;;;18.55;9.13;;;15.00;99.90;;;;;;5042866;28;20097;-53
2022/05/17 00:03:20;;;;;;;25.85;11.18;;;14.90;99.90;;;;;;5060012;28;20048;-54
2022/05/17 00:05:46;;;;;;;22.55;9.82;;;14.90;99.90;;;;;;5060314;28;20049;-51
2022/05/17 00:08:14;;;;;;;21.02;10.05;;;15.00;99.90;;;;;;5059875;28;20467;-52
2022/05/17 00:10:41;;;;;;;22.17;9.88;;;14.90;99.90;;;;;;5054461;28;20075;-53
2022/05/17 00:13:08;;;;;;;22.92;9.45;;;14.90;99.90;;;;;;5052047;28;20588;-52
2022/05/17 00:15:35;;;;;;;23.45;10.00;;;14.90;99.90;;;;;;5021758;28;20052;-52
2022/05/17 00:18:02;;;;;;;22.77;9.00;;;14.90;99.90;;;;;;5039756;28;20049;-53
2022/05/17 00:20:28;;;;;;;25.35;9.82;;;14.90;99.90;;;;;;5021562;28;20053;-53
2022/05/17 00:22:54;;;;;;;21.55;8.98;;;14.80;99.90;;;;;;5039871;28;20563;-52
2022/05/17 00:25:22;;;;;;;26.13;9.77;;;14.80;99.90;;;;;;5040182;28;20041;-50
2022/05/17 00:27:47;;;;;;;21.00;8.88;;;14.80;99.90;;;;;;5039253;28;20049;-51
2022/05/17 00:30:13;;;;;;;21.67;9.13;;;14.70;99.90;;;;;;5052303;28;20124;-53
2022/05/17 00:32:39;;;;;;;23.20;9.43;;;14.70;99.90;;;;;;5058785;28;20080;-53
2022/05/17 00:35:06;;;;;;;21.58;8.43;;;14.70;99.90;;;;;;5060058;28;20045;-52
2022/05/17 00:37:32;;;;;;;20.67;9.60;;;14.60;99.90;;;;;;5059373;28;20045;-51
2022/05/17 00:39:58;;;;;;;19.92;8.77;;;14.60;99.90;;;;;;5059634;28;20041;-53
2022/05/17 00:42:24;;;;;;;21.77;8.38;;;14.60;99.90;;;;;;5056482;28;20123;-51
2022/05/17 00:44:49;;;;;;;25.42;9.73;;;14.60;99.90;;;;;;5059192;28;20205;-51
2022/05/17 00:47:20;;;;;;;25.25;10.63;;;14.60;99.90;;;;;;5059657;28;20109;-53
2022/05/17 00:50:08;;;;;;;26.27;8.88;;;14.60;99.90;;;;;;5039477;28;20050;-52
2022/05/17 00:52:41;;;;;;;27.77;10.57;;;14.60;99.90;;;;;;5036819;28;20063;-53
2022/05/17 00:55:18;;;;;;;23.38;9.60;;;14.60;99.90;;;;;;5041608;28;20041;-53
2022/05/17 00:58:05;;;;;;;27.10;10.70;;;14.60;99.90;;;;;;5059039;28;20048;-53
2022/05/17 01:00:38;;;;;;;21.55;8.90;;;14.50;99.90;;;;;;5042935;28;20057;-53
2022/05/17 01:03:07;;;;;;;21.77;8.63;;;14.50;99.90;;;;;;5038424;28;20482;-53
2022/05/17 01:05:42;;;;;;;22.85;8.45;;;14.40;99.90;;;;;;5039423;28;20113;-53
2022/05/17 01:08:11;;;;;;;19.73;8.73;;;14.50;99.90;;;;;;5039608;28;20056;-53
2022/05/17 01:10:37;;;;;;;21.40;9.75;;;14.40;99.90;;;;;;5043965;28;20032;-52
2022/05/17 01:15:47;;;;;;;28.95;9.98;;;14.40;99.90;;;;;;5055682;28;20056;-53
2022/05/17 01:18:13;;;;;;;22.13;9.45;;;14.40;99.90;;;;;;5059202;28;20040;-52
2022/05/17 01:20:39;;;;;;;24.73;10.13;;;14.30;99.90;;;;;;5043372;28;20038;-50
2022/05/17 01:23:05;;;;;;;20.98;8.80;;;14.20;99.90;;;;;;5044704;28;20044;-53
2022/05/17 01:25:32;;;;;;;20.63;9.15;;;14.30;99.90;;;;;;5043251;28;20049;-51
2022/05/17 01:28:03;;;;;;;23.85;9.95;;;14.30;99.90;;;;;;5038287;28;20045;-53
2022/05/17 01:30:31;;;;;;;18.67;9.35;;;14.30;99.90;;;;;;5038524;28;20052;-52
2022/05/17 01:32:57;;;;;;;24.00;10.43;;;14.20;99.90;;;;;;5051269;28;20517;-53
2022/05/17 01:35:23;;;;;;;28.25;11.60;;;14.20;99.90;;;;;;5059255;28;20075;-54
2022/05/17 01:37:55;;;;;;;25.77;10.93;;;14.20;99.90;;;;;;5058492;28;20106;-50
2022/05/17 01:40:22;;;;;;;24.65;10.13;;;14.20;99.90;;;;;;5058175;28;20074;-53
2022/05/17 01:42:47;;;;;;;27.98;11.30;;;14.30;99.90;;;;;;5058925;28;20657;-51
2022/05/17 01:45:13;;;;;;;23.90;10.65;;;14.20;99.90;;;;;;5049743;28;20041;-53
2022/05/17 01:47:39;;;;;;;24.73;11.32;;;14.10;99.90;;;;;;5043130;28;20067;-53
2022/05/17 01:50:05;;;;;;;31.58;11.02;;;14.10;99.90;;;;;;5045428;28;20049;-52
2022/05/17 01:52:31;;;;;;;22.52;10.77;;;14.10;99.90;;;;;;5055219;28;20509;-54
2022/05/17 01:54:56;;;;;;;23.77;10.48;;;14.10;99.90;;;;;;5038717;28;20072;-53
2022/05/17 01:57:22;;;;;;;21.98;10.30;;;14.10;99.90;;;;;;5052155;28;20513;-52
2022/05/17 01:59:48;;;;;;;27.40;10.73;;;14.10;99.90;;;;;;5038867;28;20533;-53
2022/05/17 02:02:13;;;;;;;22.90;11.00;;;14.10;99.90;;;;;;5037703;28;20068;-53
2022/05/17 02:04:39;;;;;;;23.90;10.45;;;14.00;99.90;;;;;;5055884;28;20067;-52
2022/05/17 02:07:05;;;;;;;25.05;10.73;;;14.10;99.90;;;;;;5057313;28;20048;-53
2022/05/17 02:09:30;;;;;;;24.98;11.27;;;14.00;99.90;;;;;;5058393;28;20044;-53
2022/05/17 02:11:56;;;;;;;21.77;10.35;;;14.00;99.90;;;;;;5057464;28;20700;-52
2022/05/17 02:14:22;;;;;;;20.67;10.23;;;13.90;99.90;;;;;;5057841;28;20082;-52
2022/05/17 02:16:47;;;;;;;22.35;9.32;;;14.10;99.90;;;;;;5040312;28;20045;-52
2022/05/17 02:19:18;;;;;;;24.52;10.20;;;14.00;99.90;;;;;;5043040;28;20053;-52
2022/05/17 02:21:43;;;;;;;22.48;9.98;;;13.90;99.90;;;;;;5053647;28;20049;-52
2022/05/17 02:24:09;;;;;;;26.15;10.00;;;14.00;99.90;;;;;;5038156;28;20052;-54
2022/05/17 02:26:34;;;;;;;21.15;9.45;;;13.90;99.90;;;;;;5058186;28;20390;-53
2022/05/17 02:29:00;;;;;;;21.65;10.32;;;13.90;99.90;;;;;;5055230;28;20501;-52
2022/05/17 02:31:26;;;;;;;27.48;9.75;;;14.00;99.90;;;;;;5037777;28;20048;-54
2022/05/17 02:33:51;;;;;;;22.25;9.85;;;13.90;99.90;;;;;;5020069;28;20045;-53
2022/05/17 02:36:17;;;;;;;24.13;10.30;;;13.90;99.90;;;;;;5037418;28;20041;-52
2022/05/17 02:38:43;;;;;;;25.40;10.23;;;13.90;99.90;;;;;;5050311;28;20041;-53
2022/05/17 02:41:10;;;;;;;26.80;10.40;;;13.90;99.90;;;;;;5057977;28;20080;-52
2022/05/17 02:43:37;;;;;;;19.60;9.50;;;13.80;99.90;;;;;;5058387;28;20521;-50
2022/05/17 02:46:02;;;;;;;22.60;10.10;;;13.90;99.90;;;;;;5041086;28;20045;-52
2022/05/17 02:48:28;;;;;;;23.45;9.35;;;13.80;99.90;;;;;;5041412;28;20062;-54
2022/05/17 02:50:55;;;;;;;25.13;10.05;;;13.80;99.90;;;;;;5051593;28;20049;-52
2022/05/17 02:53:21;;;;;;;22.25;9.95;;;13.80;99.90;;;;;;5045313;28;20578;-53
2022/05/17 02:55:47;;;;;;;23.13;9.45;;;13.80;99.90;;;;;;5049463;28;20045;-53
2022/05/17 02:58:13;;;;;;;21.42;9.88;;;13.70;99.90;;;;;;5060897;28;20036;-52
2022/05/17 03:00:39;;;;;;;24.63;10.18;;;13.70;99.90;;;;;;5049253;28;20052;-53
2022/05/17 03:03:04;;;;;;;25.25;9.85;;;13.70;99.90;;;;;;5040988;28;20045;-51
2022/05/17 03:05:30;;;;;;;21.02;8.70;;;13.70;99.90;;;;;;5057338;28;20667;-52
2022/05/17 03:07:56;;;;;;;20.85;8.77;;;13.70;99.90;;;;;;5054391;28;20503;-53
2022/05/17 03:10:21;;;;;;;21.20;8.82;;;13.70;99.90;;;;;;5046079;28;20033;-53
2022/05/17 03:12:47;;;;;;;23.10;9.23;;;13.70;99.90;;;;;;5061420;28;20052;-52
2022/05/17 03:15:20;;;;;;;19.50;9.02;;;13.70;99.90;;;;;;5060431;28;20083;-53
2022/05/17 03:17:46;;;;;;;16.63;8.50;;;13.60;99.90;;;;;;5061204;28;20045;-53
2022/05/17 03:20:12;;;;;;;19.17;8.27;;;13.60;99.90;;;;;;5059983;28;20071;-52
2022/05/17 03:22:37;;;;;;;17.90;8.48;;;13.60;99.90;;;;;;5053160;28;20049;-50
2022/05/17 03:25:03;;;;;;;17.95;8.27;;;13.60;99.90;;;;;;5051695;28;20049;-52
2022/05/17 03:27:29;;;;;;;20.33;8.55;;;13.60;99.90;;;;;;5060653;28;20048;-52
2022/05/17 03:29:55;;;;;;;19.83;8.77;;;13.60;99.90;;;;;;5045012;28;20052;-52
2022/05/17 03:32:20;;;;;;;17.08;7.78;;;13.60;99.90;;;;;;5055373;28;20057;-52
2022/05/17 03:34:46;;;;;;;22.60;8.82;;;13.60;99.90;;;;;;5046299;28;20049;-53
2022/05/17 03:37:12;;;;;;;17.83;7.60;;;13.50;99.90;;;;;;5060154;28;20040;-52
2022/05/17 03:39:38;;;;;;;15.95;7.50;;;13.60;99.90;;;;;;5044246;28;20030;-52
2022/05/17 03:42:04;;;;;;;19.55;7.75;;;13.50;99.90;;;;;;5051748;28;20110;-52
2022/05/17 03:44:30;;;;;;;18.25;7.65;;;13.60;99.90;;;;;;5060528;28;20052;-52
2022/05/17 03:46:56;;;;;;;20.98;8.52;;;13.60;99.90;;;;;;5060583;28;20037;-51
2022/05/17 03:49:21;;;;;;;21.50;7.43;;;13.60;99.90;;;;;;5059697;28;20052;-52
2022/05/17 03:51:50;;;;;;;16.63;6.82;;;13.70;99.90;;;;;;5060434;28;20141;-52
2022/05/17 03:54:20;;;;;;;21.05;8.10;;;13.70;99.90;;;;;;5049530;28;20463;-53
2022/05/17 03:56:47;;;;;;;22.73;8.50;;;13.70;99.90;;;;;;5042727;28;20124;-52
2022/05/17 03:59:12;;;;;;;14.95;6.88;;;13.70;99.90;;;;;;5043512;28;20059;-52
2022/05/17 04:01:38;;;;;;;15.70;6.60;;;13.70;99.90;;;;;;5044716;28;20069;-53
2022/05/17 04:04:04;;;;;;;15.85;7.00;;;13.80;99.90;;;;;;5046832;28;20033;-52
2022/05/17 04:06:29;;;;;;;34.50;8.07;;;13.80;99.90;;;;;;5038103;28;20049;-53
2022/05/17 04:08:55;;;;;;;21.15;7.40;;;13.80;99.90;;;;;;5040802;28;20526;-53
2022/05/17 04:11:21;;;;;;;21.15;7.97;;;13.70;99.90;;;;;;5052744;28;20500;-53
2022/05/17 04:13:46;;;;;;;19.10;8.52;;;13.90;99.90;;;;;;5042541;28;20041;-52
2022/05/17 04:16:12;;;;;;;19.35;6.43;;;13.90;99.90;;;;;;5059874;28;20067;-52
2022/05/17 04:18:38;;;;;;;23.88;7.60;;;14.00;99.90;;;;;;5059651;28;20037;-53
2022/05/17 04:21:05;;;;;;;18.75;7.00;;;14.00;99.90;;;;;;5060534;28;20036;-52
2022/05/17 04:23:31;;;;;;;17.13;6.97;;;14.00;99.90;;;;;;5055789;28;20048;-54
2022/05/17 04:25:57;;;;;;;18.83;7.47;;;14.10;99.90;;;;;;5060420;28;20033;-53
2022/05/17 04:28:23;;;;;;;16.98;6.80;;;14.20;99.90;;;;;;5039456;28;20068;-53
2022/05/17 04:30:50;;;;;;;17.17;6.70;;;14.30;99.90;;;;;;5022583;28;20045;-53
2022/05/17 04:33:15;;;;;;;15.60;6.28;;;14.40;99.90;;;;;;5049740;28;20048;-52
2022/05/17 04:35:42;;;;;;;27.75;6.97;;;14.50;99.90;;;;;;5048618;28;20033;-53
2022/05/17 04:38:07;;;;;;;16.17;6.40;;;14.50;99.90;;;;;;5059857;28;20040;-52
2022/05/17 04:40:34;;;;;;;19.92;7.18;;;14.60;99.90;;;;;;5044735;28;20072;-53
2022/05/17 04:43:00;;;;;;;18.35;6.15;;;14.70;99.90;;;;;;5054476;28;20092;-53
2022/05/17 04:45:26;;;;;;;16.23;7.20;;;14.80;99.90;;;;;;5058632;28;20041;-53
2022/05/17 04:47:52;;;;;;;19.60;6.85;;;14.80;99.90;;;;;;5060078;28;20056;-53
2022/05/17 04:50:19;;;;;;;18.27;6.63;;;14.90;99.90;;;;;;5058899;28;20057;-53
2022/05/17 04:52:47;;;;;;;17.08;5.28;;;15.00;99.90;;;;;;5058511;28;20052;-53
2022/05/17 04:55:15;;;;;;;18.92;5.90;;;15.20;99.90;;;;;;5053878;28;20080;-52
2022/05/17 04:57:40;;;;;;;20.30;6.30;;;15.20;99.90;;;;;;5037736;28;20041;-52
2022/05/17 05:00:10;;;;;;;15.35;5.40;;;15.10;99.90;;;;;;5039899;28;20076;-53
2022/05/17 05:02:36;;;;;;;18.00;5.60;;;15.00;99.90;;;;;;5020733;28;20076;-53
2022/05/17 05:05:03;;;;;;;21.10;6.47;;;15.00;99.90;;;;;;5049325;28;20033;-53
2022/05/17 05:07:28;;;;;;;18.23;5.70;;;15.10;99.90;;;;;;5045430;28;20053;-53
2022/05/17 05:09:54;;;;;;;20.55;6.18;;;14.90;99.90;;;;;;5053540;28;20071;-52
2022/05/17 05:12:20;;;;;;;21.80;7.32;;;14.90;99.90;;;;;;5058383;28;20064;-53
2022/05/17 05:14:45;;;;;;;16.70;5.97;;;14.90;99.90;;;;;;5058722;28;20040;-53
2022/05/17 05:17:11;;;;;;;15.95;5.43;;;14.80;99.90;;;;;;5059287;28;20114;-53
2022/05/17 05:19:36;;;;;;;18.05;6.72;;;14.80;99.90;;;;;;5058041;28;20122;-53
2022/05/17 05:22:03;;;;;;;13.98;5.60;;;14.90;99.90;;;;;;5059523;28;20106;-54
2022/05/17 05:24:29;;;;;;;21.10;6.82;;;14.90;99.90;;;;;;5058507;28;20052;-53
2022/05/17 05:26:55;;;;;;;15.30;5.43;;;14.80;99.90;;;;;;5058564;28;20525;-53
2022/05/17 05:29:20;;;;;;;17.42;6.50;;;14.90;99.90;;;;;;5058577;28;20056;-53
2022/05/17 05:31:46;;;;;;;16.88;6.30;;;14.80;99.90;;;;;;5040467;28;20094;-53
2022/05/17 05:34:11;;;;;;;20.42;6.97;;;14.90;99.90;;;;;;5047902;28;20049;-53
2022/05/17 05:36:37;;;;;;;14.73;7.30;;;14.80;99.90;;;;;;5051034;28;20053;-53
2022/05/17 05:39:03;;;;;;;17.17;6.18;;;15.00;99.90;;;;;;5059228;28;20051;-51
2022/05/17 05:41:29;;;;;;;19.30;6.65;;;14.90;99.90;;;;;;5037924;28;20072;-53
2022/05/17 05:43:55;;;;;;;18.00;6.57;;;15.10;99.90;;;;;;5055625;28;20529;-54
2022/05/17 05:46:21;;;;;;;13.80;6.00;;;15.30;99.90;;;;;;5055307;28;20041;-53
2022/05/17 05:48:47;;;;;;;17.67;6.55;;;15.30;99.90;;;;;;5036999;28;20119;-54
2022/05/17 05:51:12;;;;;;;22.80;7.47;;;15.40;99.90;;;;;;5043423;28;20143;-52
2022/05/17 05:53:39;;;;;;;15.63;6.32;;;15.30;99.90;;;;;;5016424;28;20091;-54
2022/05/17 05:56:05;;;;;;;19.52;6.78;;;15.60;99.90;;;;;;5043853;28;20045;-53
2022/05/17 05:58:37;;;;;;;15.90;6.22;;;15.60;99.90;;;;;;5052927;28;20044;-53
2022/05/17 06:01:03;;;;;;;18.90;6.43;;;15.50;99.90;;;;;;5029949;28;20038;-53
2022/05/17 06:03:29;;;;;;;14.48;5.55;;;15.40;99.90;;;;;;5034857;28;20056;-54
2022/05/17 06:05:55;;;;;;;21.77;7.55;;;15.50;99.90;;;;;;5036097;28;20049;-54
2022/05/17 06:08:21;;;;;;;17.13;6.88;;;15.40;99.90;;;;;;5026586;28;20052;-53
2022/05/17 06:10:47;;;;;;;13.73;7.18;;;15.50;99.90;;;;;;5045113;28;20052;-53
2022/05/17 06:13:16;;;;;;;18.90;6.57;;;15.60;99.90;;;;;;5037345;28;20048;-53
2022/05/17 06:15:43;;;;;;;26.02;8.73;;;15.70;99.90;;;;;;5036055;28;20159;-52
2022/05/17 06:18:09;;;;;;;29.98;9.05;;;15.70;99.90;;;;;;5054488;28;20084;-53
2022/05/17 06:20:36;;;;;;;19.35;7.28;;;15.70;99.90;;;;;;5054799;28;20061;-53
2022/05/17 06:23:03;;;;;;;17.05;7.03;;;15.80;99.90;;;;;;5053472;28;20044;-54
2022/05/17 06:25:28;;;;;;;16.95;6.53;;;16.10;99.90;;;;;;5035133;28;20073;-53
2022/05/17 06:27:54;;;;;;;15.85;6.50;;;16.00;99.90;;;;;;5044998;28;20033;-54
2022/05/17 06:30:20;;;;;;;15.65;5.55;;;16.20;99.90;;;;;;5054705;28;20151;-51
2022/05/17 06:32:46;;;;;;;19.85;6.63;;;16.30;99.90;;;;;;5041333;28;20072;-53
2022/05/17 06:35:13;;;;;;;18.88;6.32;;;16.30;99.90;;;;;;5017574;28;20057;-53
2022/05/17 06:37:38;;;;;;;19.05;5.85;;;16.50;99.90;;;;;;5052319;28;20053;-53
2022/05/17 06:40:06;;;;;;;18.45;6.00;;;16.50;99.90;;;;;;5048675;28;20037;-54
2022/05/17 06:42:32;;;;;;;17.13;5.70;;;16.40;99.90;;;;;;5041204;28;20042;-51
2022/05/17 06:44:58;;;;;;;13.70;5.57;;;16.40;99.90;;;;;;5033923;28;20063;-54
2022/05/17 06:47:23;;;;;;;16.88;6.32;;;16.40;99.90;;;;;;5034659;28;20077;-54
2022/05/17 06:49:49;;;;;;;19.33;6.75;;;16.40;99.90;;;;;;5050583;28;20064;-53
2022/05/17 06:52:16;;;;;;;15.32;6.25;;;16.50;99.90;;;;;;5057884;28;20425;-53
2022/05/17 06:54:43;;;;;;;15.02;5.55;;;16.60;99.90;;;;;;5057271;28;20045;-53
2022/05/17 06:57:11;;;;;;;13.10;5.40;;;16.60;99.90;;;;;;5057658;28;20080;-54
2022/05/17 06:59:37;;;;;;;18.50;6.05;;;16.60;99.90;;;;;;5055687;28;20051;-53
2022/05/17 07:02:04;;;;;;;15.70;5.78;;;16.60;99.90;;;;;;5039209;28;20045;-54
2022/05/17 07:04:31;;;;;;;13.10;5.28;;;16.80;99.90;;;;;;5058169;28;20081;-53
2022/05/17 07:06:57;;;;;;;19.42;7.03;;;16.70;99.90;;;;;;5036756;28;20446;-54
2022/05/17 07:09:23;;;;;;;15.32;5.53;;;16.80;99.90;;;;;;5037885;28;20044;-59
2022/05/17 07:14:38;;;;;;;16.92;6.93;;;17.10;99.90;;;;;;5044989;28;20056;-54
2022/05/17 07:17:20;;;;;;;19.88;6.88;;;17.20;99.90;;;;;;5057690;28;20045;-54
2022/05/17 07:19:47;;;;;;;19.27;6.63;;;16.90;99.90;;;;;;5056554;28;20040;-54
2022/05/17 07:22:13;;;;;;;15.35;6.57;;;17.00;99.90;;;;;;5040071;28;20047;-53
2022/05/17 07:24:41;;;;;;;15.13;6.03;;;17.00;99.90;;;;;;5039107;28;20045;-54
2022/05/17 07:27:08;;;;;;;19.15;6.20;;;17.20;99.90;;;;;;5022794;28;20075;-54
2022/05/17 07:29:33;;;;;;;22.02;6.38;;;17.30;99.90;;;;;;5044500;28;20053;-54
2022/05/17 07:32:00;;;;;;;19.95;6.25;;;17.20;99.90;;;;;;5048432;28;20050;-54
2022/05/17 07:34:27;;;;;;;19.23;6.82;;;17.30;99.90;;;;;;5043446;28;20048;-54
2022/05/17 07:36:53;;;;;;;17.55;7.78;;;17.40;99.90;;;;;;5051435;28;20080;-53
2022/05/17 07:39:19;;;;;;;18.48;6.90;;;17.40;99.90;;;;;;5041189;28;20549;-53
2022/05/17 07:41:45;;;;;;;18.88;6.40;;;17.50;99.90;;;;;;5052825;28;20039;-53
2022/05/17 07:44:11;;;;;;;13.63;6.53;;;17.60;99.90;;;;;;5043372;28;20064;-52
2022/05/17 07:46:38;;;;;;;19.38;6.32;;;17.80;99.90;;;;;;5048984;28;20508;-54
2022/05/17 07:49:03;;;;;;;16.63;6.75;;;17.80;99.90;;;;;;5040410;28;20555;-53
2022/05/17 07:51:29;;;;;;;15.73;6.95;;;18.00;99.90;;;;;;5041067;28;20053;-54
2022/05/17 07:53:55;;;;;;;15.68;7.10;;;18.10;99.90;;;;;;5039908;28;20049;-54
2022/05/17 07:56:21;;;;;;;14.60;6.22;;;18.00;99.90;;;;;;5053263;28;20606;-54
2022/05/17 07:58:46;;;;;;;19.65;7.38;;;18.20;99.90;;;;;;5042030;28;20055;-54
2022/05/17 08:01:12;;;;;;;17.88;6.65;;;18.10;99.90;;;;;;5060533;28;20056;-52
2022/05/17 08:03:38;;;;;;;18.23;6.60;;;18.30;99.90;;;;;;5047362;28;20052;-53
2022/05/17 08:06:04;;;;;;;20.45;6.97;;;18.20;99.90;;;;;;5035903;28;20499;-53
2022/05/17 08:08:31;;;;;;;16.70;7.47;;;18.30;99.90;;;;;;5049585;28;20036;-53
2022/05/17 08:10:56;;;;;;;16.85;7.03;;;18.40;99.90;;;;;;5059550;28;20037;-54
2022/05/17 08:13:23;;;;;;;16.25;6.25;;;18.10;99.90;;;;;;5060881;28;20080;-54
2022/05/17 08:15:49;;;;;;;15.68;7.70;;;18.20;99.90;;;;;;5059532;28;20037;-53
2022/05/17 08:18:16;;;;;;;18.27;8.43;;;18.10;99.90;;;;;;5059973;28;20041;-53
2022/05/17 08:20:42;;;;;;;15.60;6.38;;;18.30;99.90;;;;;;5060360;28;20087;-53
2022/05/17 08:23:08;;;;;;;17.92;6.82;;;18.50;99.90;;;;;;5052516;28;20049;-54
2022/05/17 08:28:18;;;;;;;17.77;6.60;;;18.60;99.90;;;;;;5058662;28;20658;-53
2022/05/17 08:30:45;;;;;;;15.45;5.82;;;18.50;99.90;;;;;;5059005;28;20037;-53
2022/05/17 08:33:15;;;;;;;12.18;4.68;;;18.60;99.90;;;;;;5040058;28;20072;-54
2022/05/17 08:36:00;;;;;;;14.63;4.57;;;18.60;99.90;;;;;;5058595;28;20080;-53
2022/05/17 08:38:27;;;;;;;14.10;5.20;;;18.80;99.90;;;;;;5059304;28;20052;-53
2022/05/17 08:41:05;;;;;;;14.60;5.75;;;18.60;99.90;;;;;;5058642;28;20566;-54
2022/05/17 08:43:51;;;;;;;14.63;5.95;;;18.80;99.90;;;;;;5059993;28;20037;-54
2022/05/17 08:46:48;;;;;;;15.27;5.45;;;19.10;99.90;;;;;;5059995;28;20048;-54
2022/05/17 08:49:24;;;;;;;13.63;5.07;;;18.90;99.90;;;;;;5058836;28;20076;-54
2022/05/17 08:51:55;;;;;;;14.50;5.03;;;19.00;99.90;;;;;;5060093;28;20128;-54
2022/05/17 08:54:30;;;;;;;14.40;5.63;;;19.10;99.90;;;;;;5058401;28;20037;-55
2022/05/17 08:57:10;;;;;;;13.48;4.97;;;19.00;99.90;;;;;;5054094;28;20041;-53
2022/05/17 08:59:37;;;;;;;15.95;5.30;;;19.00;99.90;;;;;;5046081;28;20126;-53
2022/05/17 09:02:05;;;;;;;12.10;4.70;;;19.10;99.90;;;;;;5044988;28;20052;-54
2022/05/17 09:04:38;;;;;;;14.18;4.97;;;19.20;99.90;;;;;;5058448;28;20059;-53
2022/05/17 09:07:28;;;;;;;17.40;6.25;;;19.40;99.90;;;;;;5043941;28;20053;-54
2022/05/17 09:10:04;;;;;;;12.55;4.57;;;19.50;99.90;;;;;;5054577;28;20041;-54
2022/05/17 09:12:44;;;;;;;14.80;5.15;;;19.50;99.90;;;;;;5045108;28;20501;-54
2022/05/17 09:15:14;;;;;;;11.40;4.38;;;19.60;99.90;;;;;;5037343;28;20076;-53
2022/05/17 09:17:39;;;;;;;12.50;4.70;;;19.70;99.90;;;;;;5039227;28;20056;-54
2022/05/17 09:20:08;;;;;;;12.95;4.20;;;19.70;99.90;;;;;;5038645;28;20049;-54
2022/05/17 09:22:34;;;;;;;11.45;4.03;;;19.80;99.90;;;;;;5039277;28;20092;-54
2022/05/17 09:25:11;;;;;;;14.65;4.15;;;20.00;99.90;;;;;;5040538;28;20403;-54
2022/05/17 09:27:39;;;;;;;12.73;4.63;;;19.90;99.90;;;;;;5049335;28;20069;-54
2022/05/17 09:30:23;;;;;;;11.80;3.90;;;19.90;99.90;;;;;;5039436;28;20041;-54
2022/05/17 09:32:59;;;;;;;13.38;4.43;;;20.10;99.90;;;;;;5040638;28;20053;-54
2022/05/17 09:35:25;;;;;;;15.82;4.68;;;20.10;99.90;;;;;;5058195;28;20579;-54
2022/05/17 09:38:03;;;;;;;12.93;3.88;;;20.30;99.90;;;;;;5037748;28;20048;-54
2022/05/17 09:40:32;;;;;;;12.68;3.83;;;20.20;99.90;;;;;;5054751;28;20041;-54
2022/05/17 09:42:58;;;;;;;10.52;3.53;;;20.20;99.90;;;;;;5039419;28;20037;-55
2022/05/17 09:45:58;;;;;;;13.48;3.53;;;20.30;99.90;;;;;;5040300;28;20149;-54
2022/05/17 09:54:10;;;;;;;11.15;4.28;;;20.50;99.90;;;;;;5037787;28;20079;-54
2022/05/17 09:56:36;;;;;;;10.73;3.60;;;20.40;99.90;;;;;;5052571;28;20126;-53
2022/05/17 09:59:20;;;;;;;12.07;3.50;;;20.60;99.90;;;;;;5058357;28;20041;-54
2022/05/17 10:01:46;;;;;;;13.20;4.07;;;20.60;99.90;;;;;;5057873;28;20847;-52
2022/05/17 10:04:18;;;;;;;11.77;3.47;;;20.40;99.90;;;;;;5058676;28;20041;-54
2022/05/17 10:06:46;;;;;;;12.57;3.22;;;20.80;99.90;;;;;;5057498;28;20059;-54
2022/05/17 10:09:30;;;;;;;11.82;3.50;;;20.80;99.90;;;;;;5058517;28;20044;-55
2022/05/17 10:12:09;;;;;;;11.02;3.60;;;20.80;99.90;;;;;;5058379;28;20070;-53
2022/05/17 10:14:46;;;;;;;11.45;3.25;;;20.80;99.90;;;;;;5040021;28;20060;-54
2022/05/17 10:17:43;;;;;;;13.80;3.40;;;20.90;99.90;;;;;;5058269;28;20045;-54
2022/05/17 10:20:23;;;;;;;8.38;2.97;;;21.00;99.90;;;;;;5050046;28;20049;-54
2022/05/17 10:23:02;;;;;;;9.07;2.85;;;20.80;99.90;;;;;;5054555;28;20049;-54
2022/05/17 10:25:48;;;;;;;10.10;2.80;;;20.90;99.90;;;;;;5038430;28;20073;-53
2022/05/17 10:29:02;;;;;;;10.18;3.50;;;21.10;99.90;;;;;;5049711;28;20095;-54
2022/05/17 10:31:43;;;;;;;10.45;2.83;;;21.20;99.90;;;;;;5047532;28;20061;-53
2022/05/17 10:34:43;;;;;;;9.70;3.13;;;21.20;99.90;;;;;;5058180;28;20067;-54
2022/05/17 10:37:19;;;;;;;12.10;3.50;;;21.40;99.90;;;;;;5057056;28;20067;-55
2022/05/17 10:39:53;;;;;;;10.65;3.30;;;21.50;99.90;;;;;;5057710;28;20071;-53
2022/05/17 10:42:20;;;;;;;8.55;2.88;;;21.30;99.90;;;;;;5044706;28;20084;-53
2022/05/17 10:44:53;;;;;;;8.70;2.35;;;21.60;99.90;;;;;;5019499;28;20045;-53
2022/05/17 10:47:43;;;;;;;12.80;3.40;;;21.60;99.90;;;;;;5038526;28;20057;-53
2022/05/17 10:50:19;;;;;;;12.15;3.13;;;21.70;99.90;;;;;;5038130;28;20057;-54
2022/05/17 10:52:54;;;;;;;13.13;3.17;;;21.70;99.90;;;;;;5037747;28;20124;-54
2022/05/17 10:55:35;;;;;;;8.98;2.45;;;21.80;99.90;;;;;;5055036;28;20051;-54
2022/05/17 10:58:23;;;;;;;10.38;3.15;;;21.90;99.90;;;;;;5056560;28;20053;-55
2022/05/17 11:01:09;;;;;;;12.27;3.10;;;22.00;99.90;;;;;;5036610;28;20053;-54
2022/05/17 11:03:44;;;;;;;10.48;2.90;;;22.00;99.90;;;;;;5043348;28;20064;-53
2022/05/17 11:06:18;;;;;;;10.98;2.90;;;21.60;99.90;;;;;;5041307;28;20046;-54
2022/05/17 11:09:02;;;;;;;12.45;2.67;;;21.80;99.90;;;;;;5039881;28;20055;-53
2022/05/17 11:12:05;;;;;;;10.63;2.40;;;22.10;99.90;;;;;;5058581;28;20037;-53
2022/05/17 11:14:44;;;;;;;11.30;2.78;;;22.00;99.90;;;;;;5043277;28;20053;-53
2022/05/17 11:17:14;;;;;;;10.23;2.90;;;22.20;99.90;;;;;;5060713;28;20037;-53
2022/05/17 11:19:52;;;;;;;8.27;2.20;;;22.30;99.90;;;;;;5060513;28;20405;-53
2022/05/17 11:22:32;;;;;;;9.52;2.30;;;22.20;99.90;;;;;;5060924;28;20539;-53
2022/05/17 11:25:18;;;;;;;9.52;2.45;;;22.10;99.90;;;;;;5059133;28;20098;-54
2022/05/17 11:28:06;;;;;;;11.02;2.38;;;22.30;99.90;;;;;;5040540;28;20037;-55
2022/05/17 11:30:56;;;;;;;7.03;1.75;;;22.50;99.90;;;;;;5041519;28;20065;-53
2022/05/17 11:33:30;;;;;;;8.57;2.08;;;22.60;99.90;;;;;;5054576;28;20060;-54
2022/05/17 11:35:57;;;;;;;8.70;1.90;;;22.60;99.90;;;;;;5040981;28;20045;-55
2022/05/17 11:38:32;;;;;;;8.38;2.30;;;22.90;99.90;;;;;;5041341;28;20053;-54
2022/05/17 11:41:00;;;;;;;9.88;2.17;;;23.00;99.90;;;;;;5051030;28;20048;-55
2022/05/17 11:43:55;;;;;;;9.48;3.35;;;23.10;99.90;;;;;;5061371;28;20114;-54
2022/05/17 11:46:30;;;;;;;8.32;2.38;;;22.60;99.90;;;;;;5060636;28;20068;-54
2022/05/17 11:49:12;;;;;;;11.40;2.65;;;23.10;99.90;;;;;;5060244;28;20052;-55
2022/05/17 11:51:56;;;;;;;9.63;2.22;;;23.20;99.90;;;;;;5047732;28;20057;-54
2022/05/17 11:54:44;;;;;;;11.65;2.35;;;23.10;99.90;;;;;;5058449;28;20053;-54
2022/05/17 11:57:10;;;;;;;7.88;2.08;;;23.10;99.90;;;;;;5060612;28;20087;-54
2022/05/17 11:59:36;;;;;;;9.55;2.40;;;23.40;99.90;;;;;;5061284;28;20048;-54
2022/05/17 12:02:07;;;;;;;10.27;2.40;;;23.40;99.90;;;;;;5060013;28;20045;-54
2022/05/17 12:04:42;;;;;;;8.38;1.77;;;23.20;99.90;;;;;;5061099;28;20037;-53
2022/05/17 12:07:25;;;;;;;9.73;2.45;;;23.40;99.90;;;;;;5042027;28;20110;-53
2022/05/17 12:09:54;;;;;;;9.18;2.08;;;23.50;99.90;;;;;;5060297;28;20079;-54
2022/05/17 12:12:39;;;;;;;8.43;2.10;;;23.50;99.90;;;;;;5060508;28;20152;-55
2022/05/17 12:15:26;;;;;;;9.40;2.03;;;23.40;99.90;;;;;;5024739;28;20053;-54
2022/05/17 12:18:16;;;;;;;9.02;2.00;;;23.60;99.90;;;;;;5060317;28;20041;-54
2022/05/17 12:21:07;;;;;;;8.50;2.10;;;23.70;99.80;;;;;;5060416;28;20112;-54
2022/05/17 12:23:49;;;;;;;7.68;1.65;;;23.30;99.20;;;;;;5059345;28;20063;-54
2022/05/17 12:26:20;;;;;;;9.45;1.90;;;23.70;99.90;;;;;;5049754;28;20055;-54
2022/05/17 12:28:52;;;;;;;10.60;1.87;;;23.60;98.80;;;;;;5049932;28;20067;-53
2022/05/17 12:31:26;;;;;;;7.53;1.58;;;23.60;98.40;;;;;;5042690;28;20921;-52
2022/05/17 12:33:53;;;;;;;6.35;1.38;;;23.70;97.40;;;;;;5060445;28;20051;-51
2022/05/17 12:36:23;;;;;;;7.03;1.75;;;23.70;97.50;;;;;;5054608;28;20081;-53
2022/05/17 12:44:53;;;;;;;6.78;1.63;;;23.40;96.90;;;;;;5059227;28;20095;-53
2022/05/17 12:47:37;;;;;;;7.45;1.70;;;23.20;97.20;;;;;;5060280;28;20037;-52
2022/05/17 12:50:04;;;;;;;8.15;1.83;;;23.30;97.40;;;;;;5059039;28;20053;-50
2022/05/17 12:52:37;;;;;;;7.03;1.83;;;23.40;97.00;;;;;;5059722;28;20394;-51
2022/05/17 12:55:16;;;;;;;9.05;2.30;;;23.60;97.00;;;;;;5044948;28;20049;-49
2022/05/17 12:57:41;;;;;;;9.05;2.38;;;23.90;97.90;;;;;;5055109;28;20040;-52
2022/05/17 13:00:31;;;;;;;8.80;1.90;;;23.60;97.90;;;;;;5030940;28;20048;-50
2022/05/17 13:03:18;;;;;;;10.90;2.08;;;23.60;98.20;;;;;;5038979;28;20046;-52
2022/05/17 13:05:49;;;;;;;7.80;1.90;;;23.50;96.70;;;;;;5046120;28;20041;-52
2022/05/17 13:08:30;;;;;;;6.28;1.70;;;23.70;98.50;;;;;;5042202;28;20057;-51
2022/05/17 13:11:00;;;;;;;8.55;1.75;;;23.50;96.50;;;;;;5052570;28;20548;-53
2022/05/17 13:13:27;;;;;;;7.22;1.60;;;23.20;96.60;;;;;;5059352;28;20052;-52